sensor_id;sensor_type;location;lat;lon;timestamp;temperature;humidity
5055;DHT22;13829;48.990;8.346;2023-02-24T00:00:05;10.20;99.90
5055;DHT22;13829;48.990;8.346;2023-02-24T00:03:00;10.10;99.90
5055;DHT22;13829;48.990;8.346;2023-02-24T00:05:39;10.10;99.90
5055;DHT22;13829;48.990;8.346;2023-02-24T00:08:26;10.10;99.90
5055;DHT22;13829;48.990;8.346;2023-02-24T00:11:14;10.00;99.90
5055;DHT22;13829;48.990;8.346;2023-02-24T00:13:52;10.00;99.90
5055;DHT22;13829;48.990;8.346;2023-02-24T00:16:29;10.00;99.90
5055;DHT22;13829;48.990;8.346;2023-02-24T00:19:06;10.00;99.90
5055;DHT22;13829;48.990;8.346;2023-02-24T00:21:42;10.00;99.90
5055;DHT22;13829;48.990;8.346;2023-02-24T00:24:26;10.00;99.90
5055;DHT22;13829;48.990;8.346;2023-02-24T00:27:28;10.00;99.90
5055;DHT22;13829;48.990;8.346;2023-02-24T00:30:16;10.00;99.90
5055;DHT22;13829;48.990;8.346;2023-02-24T00:33:00;10.10;99.90
5055;DHT22;13829;48.990;8.346;2023-02-24T00:35:32;10.10;99.90
5055;DHT22;13829;48.990;8.346;2023-02-24T00:38:06;10.10;99.90
5055;DHT22;13829;48.990;8.346;2023-02-24T00:40:56;10.10;99.90
5055;DHT22;13829;48.990;8.346;2023-02-24T00:43:36;10.00;99.90
5055;DHT22;13829;48.990;8.346;2023-02-24T00:46:07;9.90;99.90
5055;DHT22;13829;48.990;8.346;2023-02-24T00:48:39;9.90;99.90
5055;DHT22;13829;48.990;8.346;2023-02-24T00:51:27;9.80;99.90
5055;DHT22;13829;48.990;8.346;2023-02-24T00:54:03;9.70;99.90
5055;DHT22;13829;48.990;8.346;2023-02-24T00:59:46;9.70;99.90
5055;DHT22;13829;48.990;8.346;2023-02-24T01:02:26;9.70;99.90
5055;DHT22;13829;48.990;8.346;2023-02-24T01:05:06;9.70;99.90
5055;DHT22;13829;48.990;8.346;2023-02-24T01:07:47;9.70;99.90
5055;DHT22;13829;48.990;8.346;2023-02-24T01:10:20;9.70;99.90
5055;DHT22;13829;48.990;8.346;2023-02-24T01:12:59;9.60;99.90
5055;DHT22;13829;48.990;8.346;2023-02-24T01:15:33;9.70;99.90
5055;DHT22;13829;48.990;8.346;2023-02-24T01:18:12;9.60;99.90
5055;DHT22;13829;48.990;8.346;2023-02-24T01:20:50;9.70;99.90
5055;DHT22;13829;48.990;8.346;2023-02-24T01:23:49;9.60;99.90
5055;DHT22;13829;48.990;8.346;2023-02-24T01:26:22;9.60;99.90
5055;DHT22;13829;48.990;8.346;2023-02-24T01:28:56;9.60;99.90
5055;DHT22;13829;48.990;8.346;2023-02-24T01:31:26;9.60;99.90
5055;DHT22;13829;48.990;8.346;2023-02-24T01:34:11;9.60;99.90
5055;DHT22;13829;48.990;8.346;2023-02-24T01:36:53;9.60;99.90
5055;DHT22;13829;48.990;8.346;2023-02-24T01:39:41;9.60;99.90
5055;DHT22;13829;48.990;8.346;2023-02-24T01:42:18;9.60;99.90
5055;DHT22;13829;48.990;8.346;2023-02-24T01:45:31;9.60;99.90
5055;DHT22;13829;48.990;8.346;2023-02-24T01:48:05;9.60;99.90
5055;DHT22;13829;48.990;8.346;2023-02-24T01:50:45;9.50;99.90
5055;DHT22;13829;48.990;8.346;2023-02-24T01:53:16;9.60;99.90
5055;DHT22;13829;48.990;8.346;2023-02-24T01:55:56;9.60;99.90
5055;DHT22;13829;48.990;8.346;2023-02-24T01:58:25;9.50;99.90
5055;DHT22;13829;48.990;8.346;2023-02-24T02:01:15;9.50;99.90
5055;DHT22;13829;48.990;8.346;2023-02-24T02:03:48;9.50;99.90
5055;DHT22;13829;48.990;8.346;2023-02-24T02:09:35;9.50;99.90
5055;DHT22;13829;48.990;8.346;2023-02-24T02:12:20;9.60;99.90
5055;DHT22;13829;48.990;8.346;2023-02-24T02:14:55;9.70;99.90
5055;DHT22;13829;48.990;8.346;2023-02-24T02:17:43;9.60;99.90
5055;DHT22;13829;48.990;8.346;2023-02-24T02:24:19;9.50;99.90
5055;DHT22;13829;48.990;8.346;2023-02-24T02:27:26;9.50;99.90
5055;DHT22;13829;48.990;8.346;2023-02-24T02:34:14;9.40;99.90
5055;DHT22;13829;48.990;8.346;2023-02-24T02:37:12;9.40;99.90
5055;DHT22;13829;48.990;8.346;2023-02-24T02:40:02;9.30;99.90
5055;DHT22;13829;48.990;8.346;2023-02-24T02:42:56;9.30;99.90
5055;DHT22;13829;48.990;8.346;2023-02-24T02:45:39;9.40;99.90
5055;DHT22;13829;48.990;8.346;2023-02-24T02:48:22;9.40;99.90
5055;DHT22;13829;48.990;8.346;2023-02-24T02:51:15;9.40;99.90
5055;DHT22;13829;48.990;8.346;2023-02-24T02:53:57;9.40;99.90
5055;DHT22;13829;48.990;8.346;2023-02-24T02:56:35;9.40;99.90
5055;DHT22;13829;48.990;8.346;2023-02-24T02:59:08;9.40;99.90
5055;DHT22;13829;48.990;8.346;2023-02-24T03:01:40;9.40;99.90
5055;DHT22;13829;48.990;8.346;2023-02-24T03:04:12;9.40;99.90
5055;DHT22;13829;48.990;8.346;2023-02-24T03:06:46;9.40;99.90
5055;DHT22;13829;48.990;8.346;2023-02-24T03:09:21;9.40;99.90
5055;DHT22;13829;48.990;8.346;2023-02-24T03:11:54;9.30;99.90
5055;DHT22;13829;48.990;8.346;2023-02-24T03:14:31;9.30;99.90
5055;DHT22;13829;48.990;8.346;2023-02-24T03:17:00;9.30;99.90
5055;DHT22;13829;48.990;8.346;2023-02-24T03:19:34;9.50;99.90
5055;DHT22;13829;48.990;8.346;2023-02-24T03:22:10;9.50;99.90
5055;DHT22;13829;48.990;8.346;2023-02-24T03:24:46;9.50;99.90
5055;DHT22;13829;48.990;8.346;2023-02-24T03:27:18;9.50;99.90
5055;DHT22;13829;48.990;8.346;2023-02-24T03:29:55;9.40;99.90
5055;DHT22;13829;48.990;8.346;2023-02-24T03:32:30;9.40;99.90
5055;DHT22;13829;48.990;8.346;2023-02-24T03:35:12;9.40;99.90
5055;DHT22;13829;48.990;8.346;2023-02-24T03:37:45;9.40;99.90
5055;DHT22;13829;48.990;8.346;2023-02-24T03:40:13;9.40;99.90
5055;DHT22;13829;48.990;8.346;2023-02-24T03:42:47;9.40;99.90
5055;DHT22;13829;48.990;8.346;2023-02-24T03:45:19;9.40;99.90
5055;DHT22;13829;48.990;8.346;2023-02-24T03:47:55;9.40;99.90
5055;DHT22;13829;48.990;8.346;2023-02-24T03:50:23;9.30;99.90
5055;DHT22;13829;48.990;8.346;2023-02-24T03:52:58;9.30;99.90
5055;DHT22;13829;48.990;8.346;2023-02-24T03:55:47;9.40;99.90
5055;DHT22;13829;48.990;8.346;2023-02-24T03:58:31;9.30;99.90
5055;DHT22;13829;48.990;8.346;2023-02-24T04:01:15;9.50;99.90
5055;DHT22;13829;48.990;8.346;2023-02-24T04:03:53;9.40;99.90
5055;DHT22;13829;48.990;8.346;2023-02-24T04:06:32;9.30;99.90
5055;DHT22;13829;48.990;8.346;2023-02-24T04:09:14;9.30;99.90
5055;DHT22;13829;48.990;8.346;2023-02-24T04:11:52;9.30;99.90
5055;DHT22;13829;48.990;8.346;2023-02-24T04:14:29;9.30;99.90
5055;DHT22;13829;48.990;8.346;2023-02-24T04:17:05;9.30;99.90
5055;DHT22;13829;48.990;8.346;2023-02-24T04:19:41;9.30;99.90
5055;DHT22;13829;48.990;8.346;2023-02-24T04:22:15;9.40;99.90
5055;DHT22;13829;48.990;8.346;2023-02-24T04:24:50;9.30;99.90
5055;DHT22;13829;48.990;8.346;2023-02-24T04:27:20;9.20;99.90
5055;DHT22;13829;48.990;8.346;2023-02-24T04:29:55;9.20;99.90
5055;DHT22;13829;48.990;8.346;2023-02-24T04:32:27;9.20;99.90
5055;DHT22;13829;48.990;8.346;2023-02-24T04:35:01;9.20;99.90
5055;DHT22;13829;48.990;8.346;2023-02-24T04:37:31;9.20;99.90
5055;DHT22;13829;48.990;8.346;2023-02-24T04:40:04;9.20;99.90
5055;DHT22;13829;48.990;8.346;2023-02-24T04:42:36;9.20;99.90
5055;DHT22;13829;48.990;8.346;2023-02-24T04:45:12;9.20;99.90
5055;DHT22;13829;48.990;8.346;2023-02-24T04:47:43;9.20;99.90
5055;DHT22;13829;48.990;8.346;2023-02-24T04:50:14;9.20;99.90
5055;DHT22;13829;48.990;8.346;2023-02-24T04:52:48;9.20;99.90
5055;DHT22;13829;48.990;8.346;2023-02-24T04:55:21;9.20;99.90
5055;DHT22;13829;48.990;8.346;2023-02-24T04:57:53;9.20;99.90
5055;DHT22;13829;48.990;8.346;2023-02-24T05:00:23;9.20;99.90
5055;DHT22;13829;48.990;8.346;2023-02-24T05:02:53;9.20;99.90
5055;DHT22;13829;48.990;8.346;2023-02-24T05:05:23;9.20;99.90
5055;DHT22;13829;48.990;8.346;2023-02-24T05:07:52;9.20;99.90
5055;DHT22;13829;48.990;8.346;2023-02-24T05:10:22;9.20;99.90
5055;DHT22;13829;48.990;8.346;2023-02-24T05:12:52;9.20;99.90
5055;DHT22;13829;48.990;8.346;2023-02-24T05:15:19;9.30;99.90
5055;DHT22;13829;48.990;8.346;2023-02-24T05:17:48;9.30;99.90
5055;DHT22;13829;48.990;8.346;2023-02-24T05:20:17;9.30;99.90
5055;DHT22;13829;48.990;8.346;2023-02-24T05:23:01;9.20;99.90
5055;DHT22;13829;48.990;8.346;2023-02-24T05:25:30;9.10;99.90
5055;DHT22;13829;48.990;8.346;2023-02-24T05:28:02;9.10;99.90
5055;DHT22;13829;48.990;8.346;2023-02-24T05:30:32;9.20;99.90
5055;DHT22;13829;48.990;8.346;2023-02-24T05:32:59;9.20;99.90
5055;DHT22;13829;48.990;8.346;2023-02-24T05:35:27;9.20;99.90
5055;DHT22;13829;48.990;8.346;2023-02-24T05:37:56;9.40;99.90
5055;DHT22;13829;48.990;8.346;2023-02-24T05:40:23;9.30;99.90
5055;DHT22;13829;48.990;8.346;2023-02-24T05:42:52;9.40;99.90
5055;DHT22;13829;48.990;8.346;2023-02-24T05:45:18;9.30;99.90
5055;DHT22;13829;48.990;8.346;2023-02-24T05:47:45;9.20;99.90
5055;DHT22;13829;48.990;8.346;2023-02-24T05:50:13;9.20;99.90
5055;DHT22;13829;48.990;8.346;2023-02-24T05:52:40;9.10;99.90
5055;DHT22;13829;48.990;8.346;2023-02-24T05:55:10;9.10;99.90
5055;DHT22;13829;48.990;8.346;2023-02-24T05:57:38;9.10;99.90
5055;DHT22;13829;48.990;8.346;2023-02-24T06:00:12;9.20;99.90
5055;DHT22;13829;48.990;8.346;2023-02-24T06:02:40;9.20;99.90
5055;DHT22;13829;48.990;8.346;2023-02-24T06:05:16;9.30;99.90
5055;DHT22;13829;48.990;8.346;2023-02-24T06:07:56;9.40;99.90
5055;DHT22;13829;48.990;8.346;2023-02-24T06:10:30;9.60;99.90
5055;DHT22;13829;48.990;8.346;2023-02-24T06:13:00;9.50;99.90
5055;DHT22;13829;48.990;8.346;2023-02-24T06:15:29;9.40;99.90
5055;DHT22;13829;48.990;8.346;2023-02-24T06:17:59;9.30;99.90
5055;DHT22;13829;48.990;8.346;2023-02-24T06:20:28;9.30;99.90
5055;DHT22;13829;48.990;8.346;2023-02-24T06:23:00;9.30;99.90
5055;DHT22;13829;48.990;8.346;2023-02-24T06:25:29;9.30;99.90
5055;DHT22;13829;48.990;8.346;2023-02-24T06:27:59;9.40;99.90
5055;DHT22;13829;48.990;8.346;2023-02-24T06:30:26;9.50;99.90
5055;DHT22;13829;48.990;8.346;2023-02-24T06:32:55;9.50;99.90
5055;DHT22;13829;48.990;8.346;2023-02-24T06:35:23;9.60;99.90
5055;DHT22;13829;48.990;8.346;2023-02-24T06:37:51;9.60;99.90
5055;DHT22;13829;48.990;8.346;2023-02-24T06:40:20;9.50;99.90
5055;DHT22;13829;48.990;8.346;2023-02-24T06:42:49;9.40;99.90
5055;DHT22;13829;48.990;8.346;2023-02-24T06:45:19;9.50;99.90
5055;DHT22;13829;48.990;8.346;2023-02-24T06:47:47;9.60;99.90
5055;DHT22;13829;48.990;8.346;2023-02-24T06:50:19;9.50;99.90
5055;DHT22;13829;48.990;8.346;2023-02-24T06:52:48;9.60;99.90
5055;DHT22;13829;48.990;8.346;2023-02-24T06:55:17;9.60;99.90
5055;DHT22;13829;48.990;8.346;2023-02-24T06:57:54;9.60;99.90
5055;DHT22;13829;48.990;8.346;2023-02-24T07:00:25;9.70;99.90
5055;DHT22;13829;48.990;8.346;2023-02-24T07:03:02;9.70;99.90
5055;DHT22;13829;48.990;8.346;2023-02-24T07:05:44;9.80;99.90
5055;DHT22;13829;48.990;8.346;2023-02-24T07:08:19;9.80;99.90
5055;DHT22;13829;48.990;8.346;2023-02-24T07:10:54;9.70;99.90
5055;DHT22;13829;48.990;8.346;2023-02-24T07:13:25;9.70;99.90
5055;DHT22;13829;48.990;8.346;2023-02-24T07:15:54;9.70;99.90
5055;DHT22;13829;48.990;8.346;2023-02-24T07:18:28;9.70;99.90
5055;DHT22;13829;48.990;8.346;2023-02-24T07:21:01;9.60;99.90
5055;DHT22;13829;48.990;8.346;2023-02-24T07:23:36;9.80;99.90
5055;DHT22;13829;48.990;8.346;2023-02-24T07:26:09;9.90;99.90
5055;DHT22;13829;48.990;8.346;2023-02-24T07:28:38;9.90;99.90
5055;DHT22;13829;48.990;8.346;2023-02-24T07:31:06;10.00;99.90
5055;DHT22;13829;48.990;8.346;2023-02-24T07:33:35;9.90;99.90
5055;DHT22;13829;48.990;8.346;2023-02-24T07:36:06;9.90;99.90
5055;DHT22;13829;48.990;8.346;2023-02-24T07:38:41;10.00;99.90
5055;DHT22;13829;48.990;8.346;2023-02-24T07:41:11;10.00;99.90
5055;DHT22;13829;48.990;8.346;2023-02-24T07:43:43;10.00;99.90
5055;DHT22;13829;48.990;8.346;2023-02-24T07:46:12;9.90;99.90
5055;DHT22;13829;48.990;8.346;2023-02-24T07:48:41;10.00;99.90
5055;DHT22;13829;48.990;8.346;2023-02-24T07:51:17;10.00;99.90
5055;DHT22;13829;48.990;8.346;2023-02-24T07:53:47;10.10;99.90
5055;DHT22;13829;48.990;8.346;2023-02-24T07:56:20;10.20;99.90
5055;DHT22;13829;48.990;8.346;2023-02-24T07:58:53;10.30;99.90
5055;DHT22;13829;48.990;8.346;2023-02-24T08:01:26;10.30;99.90
5055;DHT22;13829;48.990;8.346;2023-02-24T08:04:04;10.30;99.90
5055;DHT22;13829;48.990;8.346;2023-02-24T08:06:35;10.30;99.90
5055;DHT22;13829;48.990;8.346;2023-02-24T08:09:16;10.30;99.90
5055;DHT22;13829;48.990;8.346;2023-02-24T08:11:47;10.30;99.90
5055;DHT22;13829;48.990;8.346;2023-02-24T08:14:17;10.30;99.90
5055;DHT22;13829;48.990;8.346;2023-02-24T08:16:47;10.40;99.90
5055;DHT22;13829;48.990;8.346;2023-02-24T08:19:17;10.40;99.90
5055;DHT22;13829;48.990;8.346;2023-02-24T08:21:49;10.40;99.90
5055;DHT22;13829;48.990;8.346;2023-02-24T08:24:19;10.40;99.90
5055;DHT22;13829;48.990;8.346;2023-02-24T08:26:50;10.50;99.90
5055;DHT22;13829;48.990;8.346;2023-02-24T08:29:29;10.50;99.90
5055;DHT22;13829;48.990;8.346;2023-02-24T08:31:56;10.50;99.90
5055;DHT22;13829;48.990;8.346;2023-02-24T08:34:24;10.50;99.90
5055;DHT22;13829;48.990;8.346;2023-02-24T08:36:59;10.50;99.90
5055;DHT22;13829;48.990;8.346;2023-02-24T08:39:27;10.50;99.90
5055;DHT22;13829;48.990;8.346;2023-02-24T08:41:55;10.50;99.90
5055;DHT22;13829;48.990;8.346;2023-02-24T08:44:23;10.50;99.90
5055;DHT22;13829;48.990;8.346;2023-02-24T08:46:52;10.40;99.90
5055;DHT22;13829;48.990;8.346;2023-02-24T08:49:21;10.40;99.90
5055;DHT22;13829;48.990;8.346;2023-02-24T08:51:52;10.30;99.90
5055;DHT22;13829;48.990;8.346;2023-02-24T08:54:22;10.40;99.90
5055;DHT22;13829;48.990;8.346;2023-02-24T08:56:52;10.40;99.90
5055;DHT22;13829;48.990;8.346;2023-02-24T08:59:24;10.50;99.90
5055;DHT22;13829;48.990;8.346;2023-02-24T09:02:04;10.50;99.90
5055;DHT22;13829;48.990;8.346;2023-02-24T09:04:53;10.50;99.90
5055;DHT22;13829;48.990;8.346;2023-02-24T09:07:22;10.50;99.90
5055;DHT22;13829;48.990;8.346;2023-02-24T09:09:53;10.50;99.90
5055;DHT22;13829;48.990;8.346;2023-02-24T09:12:22;10.50;99.90
5055;DHT22;13829;48.990;8.346;2023-02-24T09:14:51;10.50;99.90
5055;DHT22;13829;48.990;8.346;2023-02-24T09:17:25;10.60;99.90
5055;DHT22;13829;48.990;8.346;2023-02-24T09:20:12;10.60;99.90
5055;DHT22;13829;48.990;8.346;2023-02-24T09:22:58;10.50;99.90
5055;DHT22;13829;48.990;8.346;2023-02-24T09:25:30;10.50;99.90
5055;DHT22;13829;48.990;8.346;2023-02-24T09:28:10;10.50;99.90
5055;DHT22;13829;48.990;8.346;2023-02-24T09:30:44;10.50;99.90
5055;DHT22;13829;48.990;8.346;2023-02-24T09:33:21;10.50;99.90
5055;DHT22;13829;48.990;8.346;2023-02-24T09:35:58;10.50;99.90
5055;DHT22;13829;48.990;8.346;2023-02-24T09:38:37;10.50;99.90
5055;DHT22;13829;48.990;8.346;2023-02-24T09:41:35;10.60;99.90
5055;DHT22;13829;48.990;8.346;2023-02-24T09:44:26;10.60;99.90
5055;DHT22;13829;48.990;8.346;2023-02-24T09:47:03;10.60;99.90
5055;DHT22;13829;48.990;8.346;2023-02-24T09:49:47;10.70;99.90
5055;DHT22;13829;48.990;8.346;2023-02-24T09:52:22;10.70;99.90
5055;DHT22;13829;48.990;8.346;2023-02-24T09:55:07;10.70;99.90
5055;DHT22;13829;48.990;8.346;2023-02-24T09:57:54;10.70;99.90
5055;DHT22;13829;48.990;8.346;2023-02-24T10:00:53;10.60;99.90
5055;DHT22;13829;48.990;8.346;2023-02-24T10:03:45;10.60;99.90
5055;DHT22;13829;48.990;8.346;2023-02-24T10:06:20;10.70;99.90
5055;DHT22;13829;48.990;8.346;2023-02-24T10:08:55;10.70;99.90
5055;DHT22;13829;48.990;8.346;2023-02-24T10:11:37;10.80;99.90
5055;DHT22;13829;48.990;8.346;2023-02-24T10:14:11;11.10;99.90
5055;DHT22;13829;48.990;8.346;2023-02-24T10:16:44;11.00;99.90
5055;DHT22;13829;48.990;8.346;2023-02-24T10:19:32;11.20;99.90
5055;DHT22;13829;48.990;8.346;2023-02-24T10:22:12;11.20;99.90
5055;DHT22;13829;48.990;8.346;2023-02-24T10:25:00;11.30;99.90
5055;DHT22;13829;48.990;8.346;2023-02-24T10:27:48;11.20;99.90
5055;DHT22;13829;48.990;8.346;2023-02-24T10:30:46;11.60;99.90
5055;DHT22;13829;48.990;8.346;2023-02-24T10:33:31;11.70;99.90
5055;DHT22;13829;48.990;8.346;2023-02-24T10:36:11;11.80;99.90
5055;DHT22;13829;48.990;8.346;2023-02-24T10:38:43;11.90;99.90
5055;DHT22;13829;48.990;8.346;2023-02-24T10:41:14;12.00;99.90
5055;DHT22;13829;48.990;8.346;2023-02-24T10:43:52;12.10;99.90
5055;DHT22;13829;48.990;8.346;2023-02-24T10:46:24;12.00;99.90
5055;DHT22;13829;48.990;8.346;2023-02-24T10:48:58;12.00;99.90
5055;DHT22;13829;48.990;8.346;2023-02-24T10:51:35;12.00;99.90
5055;DHT22;13829;48.990;8.346;2023-02-24T10:54:11;12.10;99.90
5055;DHT22;13829;48.990;8.346;2023-02-24T10:57:11;12.20;99.90
5055;DHT22;13829;48.990;8.346;2023-02-24T10:59:51;12.30;99.90
5055;DHT22;13829;48.990;8.346;2023-02-24T11:02:46;12.30;99.90
5055;DHT22;13829;48.990;8.346;2023-02-24T11:05:40;12.40;99.90
5055;DHT22;13829;48.990;8.346;2023-02-24T11:08:41;12.50;99.90
5055;DHT22;13829;48.990;8.346;2023-02-24T11:11:22;12.60;99.90
5055;DHT22;13829;48.990;8.346;2023-02-24T11:13:55;12.60;99.90
5055;DHT22;13829;48.990;8.346;2023-02-24T11:16:44;12.70;99.90
5055;DHT22;13829;48.990;8.346;2023-02-24T11:19:35;12.80;99.90
5055;DHT22;13829;48.990;8.346;2023-02-24T11:22:12;12.90;99.90
5055;DHT22;13829;48.990;8.346;2023-02-24T11:24:45;13.00;99.90
5055;DHT22;13829;48.990;8.346;2023-02-24T11:27:17;12.90;99.90
5055;DHT22;13829;48.990;8.346;2023-02-24T11:30:06;13.00;99.90
5055;DHT22;13829;48.990;8.346;2023-02-24T11:32:56;12.90;99.90
5055;DHT22;13829;48.990;8.346;2023-02-24T11:35:41;12.90;99.90
5055;DHT22;13829;48.990;8.346;2023-02-24T11:38:28;12.60;99.90
5055;DHT22;13829;48.990;8.346;2023-02-24T11:41:11;12.50;99.90
5055;DHT22;13829;48.990;8.346;2023-02-24T11:43:52;12.40;99.90
5055;DHT22;13829;48.990;8.346;2023-02-24T11:46:33;12.30;99.90
5055;DHT22;13829;48.990;8.346;2023-02-24T11:49:10;12.50;99.90
5055;DHT22;13829;48.990;8.346;2023-02-24T11:51:49;12.40;99.90
5055;DHT22;13829;48.990;8.346;2023-02-24T11:54:18;12.50;99.90
5055;DHT22;13829;48.990;8.346;2023-02-24T11:56:47;12.50;99.90
5055;DHT22;13829;48.990;8.346;2023-02-24T11:59:23;12.70;99.90
5055;DHT22;13829;48.990;8.346;2023-02-24T12:02:02;12.80;99.90
5055;DHT22;13829;48.990;8.346;2023-02-24T12:04:45;13.00;99.90
5055;DHT22;13829;48.990;8.346;2023-02-24T12:07:24;13.00;99.90
5055;DHT22;13829;48.990;8.346;2023-02-24T12:10:00;13.00;99.90
5055;DHT22;13829;48.990;8.346;2023-02-24T12:12:39;13.00;99.90
5055;DHT22;13829;48.990;8.346;2023-02-24T12:15:14;13.00;99.90
5055;DHT22;13829;48.990;8.346;2023-02-24T12:17:52;13.00;99.90
5055;DHT22;13829;48.990;8.346;2023-02-24T12:20:27;13.00;99.90
5055;DHT22;13829;48.990;8.346;2023-02-24T12:23:07;13.10;99.90
5055;DHT22;13829;48.990;8.346;2023-02-24T12:25:52;13.00;99.90
5055;DHT22;13829;48.990;8.346;2023-02-24T12:28:43;13.00;99.90
5055;DHT22;13829;48.990;8.346;2023-02-24T12:31:31;13.00;99.90
5055;DHT22;13829;48.990;8.346;2023-02-24T12:34:11;12.90;99.90
5055;DHT22;13829;48.990;8.346;2023-02-24T12:37:13;12.70;99.90
5055;DHT22;13829;48.990;8.346;2023-02-24T12:40:08;12.70;99.90
5055;DHT22;13829;48.990;8.346;2023-02-24T12:42:59;12.70;99.90
5055;DHT22;13829;48.990;8.346;2023-02-24T12:45:47;12.60;99.90
5055;DHT22;13829;48.990;8.346;2023-02-24T12:48:31;12.60;99.90
5055;DHT22;13829;48.990;8.346;2023-02-24T12:51:21;12.50;99.90
5055;DHT22;13829;48.990;8.346;2023-02-24T12:54:01;12.50;99.90
5055;DHT22;13829;48.990;8.346;2023-02-24T12:56:40;12.60;99.90
5055;DHT22;13829;48.990;8.346;2023-02-24T12:59:19;12.50;99.90
5055;DHT22;13829;48.990;8.346;2023-02-24T13:01:58;12.60;99.90
5055;DHT22;13829;48.990;8.346;2023-02-24T13:04:36;12.60;99.90
5055;DHT22;13829;48.990;8.346;2023-02-24T13:07:25;12.80;99.90
5055;DHT22;13829;48.990;8.346;2023-02-24T13:10:16;12.90;99.90
5055;DHT22;13829;48.990;8.346;2023-02-24T13:12:56;12.90;99.90
5055;DHT22;13829;48.990;8.346;2023-02-24T13:15:32;13.00;99.90
5055;DHT22;13829;48.990;8.346;2023-02-24T13:17:59;13.00;99.90
5055;DHT22;13829;48.990;8.346;2023-02-24T13:20:31;12.80;99.90
5055;DHT22;13829;48.990;8.346;2023-02-24T13:23:17;12.70;99.90
5055;DHT22;13829;48.990;8.346;2023-02-24T13:25:51;12.50;99.90
5055;DHT22;13829;48.990;8.346;2023-02-24T13:28:25;12.50;99.90
5055;DHT22;13829;48.990;8.346;2023-02-24T13:30:58;12.50;99.90
5055;DHT22;13829;48.990;8.346;2023-02-24T13:33:30;12.40;99.90
5055;DHT22;13829;48.990;8.346;2023-02-24T13:36:12;12.40;99.90
5055;DHT22;13829;48.990;8.346;2023-02-24T13:38:46;12.40;99.90
5055;DHT22;13829;48.990;8.346;2023-02-24T13:41:37;12.20;99.90
5055;DHT22;13829;48.990;8.346;2023-02-24T13:44:24;12.10;99.90
5055;DHT22;13829;48.990;8.346;2023-02-24T13:47:23;12.10;99.90
5055;DHT22;13829;48.990;8.346;2023-02-24T13:50:19;12.10;99.90
5055;DHT22;13829;48.990;8.346;2023-02-24T13:53:12;12.10;99.90
5055;DHT22;13829;48.990;8.346;2023-02-24T13:56:14;12.00;99.90
5055;DHT22;13829;48.990;8.346;2023-02-24T13:59:13;12.00;99.90
5055;DHT22;13829;48.990;8.346;2023-02-24T14:01:58;11.90;99.90
5055;DHT22;13829;48.990;8.346;2023-02-24T14:04:31;11.90;99.90
5055;DHT22;13829;48.990;8.346;2023-02-24T14:07:02;11.80;99.90
5055;DHT22;13829;48.990;8.346;2023-02-24T14:09:38;11.80;99.90
5055;DHT22;13829;48.990;8.346;2023-02-24T14:12:13;11.90;99.90
5055;DHT22;13829;48.990;8.346;2023-02-24T14:14:45;11.80;99.90
5055;DHT22;13829;48.990;8.346;2023-02-24T14:17:20;11.80;99.90
5055;DHT22;13829;48.990;8.346;2023-02-24T14:19:53;11.80;99.90
5055;DHT22;13829;48.990;8.346;2023-02-24T14:22:21;11.80;99.90
5055;DHT22;13829;48.990;8.346;2023-02-24T14:24:48;11.80;99.90
5055;DHT22;13829;48.990;8.346;2023-02-24T14:27:23;11.70;99.90
5055;DHT22;13829;48.990;8.346;2023-02-24T14:29:54;11.80;99.90
5055;DHT22;13829;48.990;8.346;2023-02-24T14:32:24;11.80;99.90
5055;DHT22;13829;48.990;8.346;2023-02-24T14:34:58;11.80;99.90
5055;DHT22;13829;48.990;8.346;2023-02-24T14:37:27;11.80;99.90
5055;DHT22;13829;48.990;8.346;2023-02-24T14:39:57;11.80;99.90
5055;DHT22;13829;48.990;8.346;2023-02-24T14:42:31;11.70;99.90
5055;DHT22;13829;48.990;8.346;2023-02-24T14:45:00;11.80;99.90
5055;DHT22;13829;48.990;8.346;2023-02-24T14:47:42;11.80;99.90
5055;DHT22;13829;48.990;8.346;2023-02-24T14:50:14;11.80;99.90
5055;DHT22;13829;48.990;8.346;2023-02-24T14:52:45;11.80;99.90
5055;DHT22;13829;48.990;8.346;2023-02-24T14:55:17;11.80;99.90
5055;DHT22;13829;48.990;8.346;2023-02-24T14:57:50;11.80;99.90
5055;DHT22;13829;48.990;8.346;2023-02-24T15:00:25;11.80;99.90
5055;DHT22;13829;48.990;8.346;2023-02-24T15:03:02;11.70;99.90
5055;DHT22;13829;48.990;8.346;2023-02-24T15:05:39;11.80;99.90
5055;DHT22;13829;48.990;8.346;2023-02-24T15:08:21;11.70;99.90
5055;DHT22;13829;48.990;8.346;2023-02-24T15:10:55;11.60;99.90
5055;DHT22;13829;48.990;8.346;2023-02-24T15:13:28;11.60;99.90
5055;DHT22;13829;48.990;8.346;2023-02-24T15:16:09;11.70;99.90
5055;DHT22;13829;48.990;8.346;2023-02-24T15:18:40;11.60;99.90
5055;DHT22;13829;48.990;8.346;2023-02-24T15:21:18;11.70;99.90
5055;DHT22;13829;48.990;8.346;2023-02-24T15:23:47;11.60;99.90
5055;DHT22;13829;48.990;8.346;2023-02-24T15:26:26;11.60;99.90
5055;DHT22;13829;48.990;8.346;2023-02-24T15:28:59;11.60;99.90
5055;DHT22;13829;48.990;8.346;2023-02-24T15:31:29;11.50;99.90
5055;DHT22;13829;48.990;8.346;2023-02-24T15:33:57;11.50;99.90
5055;DHT22;13829;48.990;8.346;2023-02-24T15:36:30;11.50;99.90
5055;DHT22;13829;48.990;8.346;2023-02-24T15:39:02;11.50;99.90
5055;DHT22;13829;48.990;8.346;2023-02-24T15:41:40;11.50;99.90
5055;DHT22;13829;48.990;8.346;2023-02-24T15:44:24;11.40;99.90
5055;DHT22;13829;48.990;8.346;2023-02-24T15:46:54;11.40;99.90
5055;DHT22;13829;48.990;8.346;2023-02-24T15:49:23;11.40;99.90
5055;DHT22;13829;48.990;8.346;2023-02-24T15:51:53;11.30;99.90
5055;DHT22;13829;48.990;8.346;2023-02-24T15:54:30;11.30;99.90
5055;DHT22;13829;48.990;8.346;2023-02-24T15:57:02;11.30;99.90
5055;DHT22;13829;48.990;8.346;2023-02-24T15:59:33;11.30;99.90
5055;DHT22;13829;48.990;8.346;2023-02-24T16:02:11;11.30;99.90
5055;DHT22;13829;48.990;8.346;2023-02-24T16:04:40;11.30;99.90
5055;DHT22;13829;48.990;8.346;2023-02-24T16:07:10;11.30;99.90
5055;DHT22;13829;48.990;8.346;2023-02-24T16:09:43;11.30;99.90
5055;DHT22;13829;48.990;8.346;2023-02-24T16:12:13;11.30;99.90
5055;DHT22;13829;48.990;8.346;2023-02-24T16:14:42;11.30;99.90
5055;DHT22;13829;48.990;8.346;2023-02-24T16:17:17;11.20;99.90
5055;DHT22;13829;48.990;8.346;2023-02-24T16:19:51;11.20;99.90
5055;DHT22;13829;48.990;8.346;2023-02-24T16:22:21;11.20;99.90
5055;DHT22;13829;48.990;8.346;2023-02-24T16:24:48;11.10;99.90
5055;DHT22;13829;48.990;8.346;2023-02-24T16:27:19;11.10;99.90
5055;DHT22;13829;48.990;8.346;2023-02-24T16:29:53;11.00;99.90
5055;DHT22;13829;48.990;8.346;2023-02-24T16:32:22;10.90;99.90
5055;DHT22;13829;48.990;8.346;2023-02-24T16:34:52;10.90;99.90
5055;DHT22;13829;48.990;8.346;2023-02-24T16:37:21;10.90;99.90
5055;DHT22;13829;48.990;8.346;2023-02-24T16:39:51;10.90;99.90
5055;DHT22;13829;48.990;8.346;2023-02-24T16:42:19;10.90;99.90
5055;DHT22;13829;48.990;8.346;2023-02-24T16:44:47;10.90;99.90
5055;DHT22;13829;48.990;8.346;2023-02-24T16:47:17;11.00;99.90
5055;DHT22;13829;48.990;8.346;2023-02-24T16:49:49;10.90;99.90
5055;DHT22;13829;48.990;8.346;2023-02-24T16:52:19;10.90;99.90
5055;DHT22;13829;48.990;8.346;2023-02-24T16:54:47;10.90;99.90
5055;DHT22;13829;48.990;8.346;2023-02-24T16:57:14;10.90;99.90
5055;DHT22;13829;48.990;8.346;2023-02-24T16:59:43;10.90;99.90
5055;DHT22;13829;48.990;8.346;2023-02-24T17:02:17;10.90;99.90
5055;DHT22;13829;48.990;8.346;2023-02-24T17:04:48;10.90;99.90